In Rescue
 
Open Full Screen Window  High Contrast Mode
March 19, 2019 7:04 PM EDT
Weather Information
Wind Direction
  ---
Wind Speed
  00 kt (0 mph)
Wind Gust
  00 kt (0 mph)
Altimeter
30.35 in
Visibility
10 SM
Temperature
06° C
43° F
Dewpoint
-04° C
25° F
Humidity
49%
1hr Rain Fall
00.00 in.
24hr Rain Fall
00.00 in.
Sky Condition
Clear
VFR

METAR K4I3 192304Z AUTO 00000KT 10SM CLR 06/M04 A3035 RMK AO2

FAA Disclaimer: The data displayed is for advisory purposes only and is not to be used for flight planning or operations.